Time;durP1;ratioP1;P1;durP2;ratioP2;P2;SDS_P1;SDS_P2;PMS_P1;PMS_P2;Temp;Humidity;BMP_temperature;BMP_pressure;BME280_temperature;BME280_humidity;BME280_pressure;Samples;Min_cycle;Max_cycle;Signal;HPM_P1;HPM_P2
2023/01/22 00:01:07;;;;;;;2.43;2.33;;;;;;;1.22;100.00;101300.16;5035312;28;20451;-54
2023/01/22 00:03:35;;;;;;;5.13;1.13;;;;;;;1.08;100.00;101298.06;5017558;28;20476;-54
2023/01/22 00:06:01;;;;;;;0.90;0.80;;;;;;;1.02;100.00;101304.88;5034203;28;21039;-53
2023/01/22 00:08:28;;;;;;;1.87;1.03;;;;;;;1.20;100.00;101297.50;5033931;28;20533;-54
2023/01/22 00:10:54;;;;;;;1.67;1.57;;;;;;;1.06;100.00;101291.03;5034052;28;20444;-53
2023/01/22 00:13:23;;;;;;;1.27;1.13;;;;;;;1.02;100.00;101294.41;5033920;28;20475;-54
2023/01/22 00:15:50;;;;;;;1.30;1.30;;;;;;;1.13;100.00;101291.22;5034971;28;20501;-53
2023/01/22 00:18:18;;;;;;;1.00;1.00;;;;;;;1.05;100.00;101295.38;5034396;28;20455;-53
2023/01/22 00:20:52;;;;;;;1.77;1.67;;;;;;;1.03;100.00;101297.06;5034629;28;20458;-53
2023/01/22 00:23:19;;;;;;;0.73;0.73;;;;;;;0.98;100.00;101287.34;5031666;28;20468;-54
2023/01/22 00:25:45;;;;;;;3.30;3.13;;;;;;;1.04;100.00;101292.72;5016804;28;20455;-53
2023/01/22 00:28:13;;;;;;;3.23;2.10;;;;;;;1.11;100.00;101292.03;5034653;28;20451;-54
2023/01/22 00:30:39;;;;;;;2.77;1.03;;;;;;;1.24;100.00;101291.50;5034381;28;20447;-53
2023/01/22 00:33:05;;;;;;;16.20;1.00;;;;;;;1.14;100.00;101289.50;5033496;28;20467;-54
2023/01/22 00:35:33;;;;;;;1.23;1.13;;;;;;;1.05;100.00;101281.41;5033372;28;20447;-53
2023/01/22 00:38:00;;;;;;;1.27;0.80;;;;;;;1.10;100.00;101285.03;5033016;28;20460;-53
2023/01/22 00:40:26;;;;;;;0.73;0.73;;;;;;;1.17;100.00;101285.22;5032997;28;20543;-53
2023/01/22 00:42:52;;;;;;;0.40;0.30;;;;;;;1.24;100.00;101281.03;5033120;28;20467;-53
2023/01/22 00:45:19;;;;;;;5.50;2.03;;;;;;;1.19;100.00;101272.16;5033153;28;20513;-53
2023/01/22 00:47:45;;;;;;;1.23;0.90;;;;;;;1.21;100.00;101280.94;5032598;28;20456;-54
2023/01/22 00:50:12;;;;;;;2.40;0.50;;;;;;;1.08;100.00;101276.22;5032865;28;20489;-53
2023/01/22 00:52:38;;;;;;;3.27;0.60;;;;;;;1.22;100.00;101279.19;5032746;28;20472;-53
2023/01/22 00:55:05;;;;;;;1.80;1.70;;;;;;;1.22;100.00;101273.97;5032785;28;20448;-54
2023/01/22 00:57:32;;;;;;;0.93;0.70;;;;;;;1.34;100.00;101269.91;5032895;28;20448;-54
2023/01/22 00:59:58;;;;;;;0.63;0.63;;;;;;;1.25;100.00;101264.47;5032938;28;20448;-53
2023/01/22 01:02:24;;;;;;;0.83;0.83;;;;;;;1.23;100.00;101262.66;5032537;28;20483;-54
2023/01/22 01:04:51;;;;;;;1.37;0.53;;;;;;;1.28;100.00;101259.31;5032581;28;20460;-54
2023/01/22 01:07:17;;;;;;;2.43;1.60;;;;;;;1.39;100.00;101263.09;5032713;28;20470;-53
2023/01/22 01:09:44;;;;;;;0.63;0.57;;;;;;;1.36;100.00;101260.38;5032271;28;20502;-54
2023/01/22 01:12:10;;;;;;;0.53;0.50;;;;;;;1.39;100.00;101265.69;5032744;28;20832;-54
2023/01/22 01:14:36;;;;;;;3.50;0.97;;;;;;;1.37;100.00;101263.88;5032812;28;20450;-54
2023/01/22 01:17:03;;;;;;;1.43;0.87;;;;;;;1.25;100.00;101264.47;5032360;28;20479;-54
2023/01/22 01:19:29;;;;;;;1.83;1.73;;;;;;;1.19;100.00;101262.56;5015068;28;20483;-53
2023/01/22 01:21:56;;;;;;;0.87;0.87;;;;;;;1.24;100.00;101269.69;5029300;28;20475;-54
2023/01/22 01:24:23;;;;;;;1.43;0.57;;;;;;;1.34;100.00;101267.31;5032406;28;20451;-53
2023/01/22 01:26:49;;;;;;;7.40;1.13;;;;;;;1.32;100.00;101268.13;5032589;28;20452;-54
2023/01/22 01:29:16;;;;;;;0.70;0.70;;;;;;;1.30;100.00;101268.09;5032341;28;21031;-53
2023/01/22 01:31:42;;;;;;;0.93;0.93;;;;;;;1.27;100.00;101267.13;5032284;28;20529;-54
2023/01/22 01:34:09;;;;;;;1.17;0.77;;;;;;;1.25;100.00;101261.84;5032285;28;20459;-54
2023/01/22 01:36:35;;;;;;;3.23;2.67;;;;;;;1.28;100.00;101267.16;5032009;28;20952;-54
2023/01/22 01:39:14;;;;;;;3.30;3.10;;;;;;;1.39;100.00;101265.69;5036365;28;20447;-53
2023/01/22 01:41:40;;;;;;;5.53;2.93;;;;;;;1.41;100.00;101257.88;5036421;28;20554;-54
2023/01/22 01:44:13;;;;;;;2.43;2.30;;;;;;;1.35;100.00;101255.97;5036168;28;20453;-54
2023/01/22 01:47:05;;;;;;;0.40;0.40;;;;;;;1.39;100.00;101262.19;5036378;28;20451;-54
2023/01/22 01:49:36;;;;;;;1.53;1.10;;;;;;;1.32;100.00;101255.91;5011751;28;20499;-53
2023/01/22 01:52:07;;;;;;;0.73;0.73;;;;;;;1.52;100.00;101258.13;5036314;28;20468;-54
2023/01/22 01:54:35;;;;;;;0.60;0.60;;;;;;;1.47;100.00;101251.03;5023594;28;20929;-53
2023/01/22 01:57:10;;;;;;;0.30;0.30;;;;;;;1.53;100.00;101252.03;5036083;28;20454;-53
2023/01/22 01:59:38;;;;;;;1.13;1.13;;;;;;;1.52;100.00;101256.41;5035825;28;20451;-54
2023/01/22 02:02:05;;;;;;;1.40;1.40;;;;;;;1.58;100.00;101253.03;5036038;28;20471;-54
2023/01/22 02:04:32;;;;;;;1.87;1.77;;;;;;;1.45;100.00;101250.13;5036144;28;20535;-54
2023/01/22 02:06:58;;;;;;;0.53;0.53;;;;;;;1.62;100.00;101252.25;5035932;28;20865;-53
2023/01/22 02:09:26;;;;;;;1.77;1.73;;;;;;;1.47;100.00;101255.38;5035992;28;20510;-54
2023/01/22 02:11:52;;;;;;;19.03;2.60;;;;;;;1.44;100.00;101258.81;5035806;28;20478;-54
2023/01/22 02:14:25;;;;;;;0.57;0.57;;;;;;;1.43;100.00;101253.56;5035366;28;20460;-53
2023/01/22 02:17:13;;;;;;;0.87;0.87;;;;;;;1.66;100.00;101241.00;5036309;28;20447;-54
2023/01/22 02:19:40;;;;;;;0.20;0.20;;;;;;;1.61;100.00;101250.47;5035607;28;20451;-54
2023/01/22 02:22:19;;;;;;;0.50;0.50;;;;;;;1.71;100.00;101245.47;5035573;28;20485;-54
2023/01/22 02:24:45;;;;;;;0.83;0.83;;;;;;;1.86;100.00;101247.56;5035549;28;20448;-54
2023/01/22 02:27:11;;;;;;;7.13;0.80;;;;;;;1.65;100.00;101240.13;5035578;28;20447;-54
2023/01/22 02:29:38;;;;;;;1.87;1.77;;;;;;;1.58;100.00;101246.06;5035495;28;20491;-53
2023/01/22 02:32:04;;;;;;;0.40;0.40;;;;;;;1.54;100.00;101241.59;5035705;28;20471;-54
2023/01/22 02:34:31;;;;;;;1.03;1.03;;;;;;;1.75;100.00;101249.94;5035989;28;20518;-54
2023/01/22 02:36:58;;;;;;;1.27;1.20;;;;;;;1.63;100.00;101243.53;5036172;28;20444;-54
2023/01/22 02:39:24;;;;;;;0.30;0.23;;;;;;;1.78;100.00;101238.63;5035469;28;20517;-54
2023/01/22 02:41:50;;;;;;;1.53;0.60;;;;;;;1.72;100.00;101247.25;5036154;28;20476;-54
2023/01/22 02:44:17;;;;;;;0.90;0.90;;;;;;;1.71;100.00;101250.72;5018501;28;20448;-54
2023/01/22 02:46:43;;;;;;;0.50;0.50;;;;;;;1.71;100.00;101252.47;5036122;28;20451;-54
2023/01/22 02:49:10;;;;;;;1.03;1.03;;;;;;;1.65;100.00;101245.34;5034250;28;20483;-54
2023/01/22 02:51:36;;;;;;;3.50;1.80;;;;;;;1.88;100.00;101248.47;5035460;28;20807;-54
2023/01/22 02:54:03;;;;;;;1.47;1.37;;;;;;;1.91;100.00;101245.03;5035983;28;20447;-54
2023/01/22 02:56:29;;;;;;;3.30;3.10;;;;;;;1.84;100.00;101240.53;5035916;28;20454;-54
2023/01/22 02:58:56;;;;;;;0.93;0.93;;;;;;;1.97;100.00;101239.94;5035572;28;20818;-54
2023/01/22 03:01:23;;;;;;;3.60;0.83;;;;;;;1.80;100.00;101239.56;5035789;28;20948;-54
2023/01/22 03:03:51;;;;;;;0.97;0.87;;;;;;;1.71;100.00;101231.50;5034852;28;20521;-53
2023/01/22 03:06:22;;;;;;;1.90;1.00;;;;;;;1.56;100.00;101233.78;5034592;28;20462;-54
2023/01/22 03:08:57;;;;;;;0.63;0.53;;;;;;;1.72;100.00;101236.78;5034619;28;20458;-54
2023/01/22 03:11:26;;;;;;;1.10;1.00;;;;;;;1.87;100.00;101233.59;5034825;28;20809;-54
2023/01/22 03:22:16;;;;;;;0.80;0.60;;;;;;;1.91;100.00;101232.81;5034540;28;20840;-54
2023/01/22 03:24:43;;;;;;;0.60;0.60;;;;;;;1.94;100.00;101226.78;5034468;28;20452;-54
2023/01/22 03:27:10;;;;;;;2.70;1.03;;;;;;;1.95;100.00;101232.03;5034439;28;20448;-54
2023/01/22 03:29:37;;;;;;;1.07;0.97;;;;;;;1.97;100.00;101227.72;5034489;28;20510;-54
2023/01/22 03:32:05;;;;;;;0.40;0.37;;;;;;;1.99;99.87;101226.00;5034430;28;20471;-54
2023/01/22 03:34:32;;;;;;;0.70;0.63;;;;;;;2.00;100.00;101221.66;5045644;28;20462;-54
2023/01/22 03:36:59;;;;;;;7.30;0.73;;;;;;;1.86;100.00;101229.22;5034433;28;20529;-54
2023/01/22 03:39:26;;;;;;;7.00;1.43;;;;;;;1.96;100.00;101228.56;5034177;28;20447;-54
2023/01/22 03:41:53;;;;;;;0.50;0.50;;;;;;;1.91;100.00;101232.81;5034089;28;20989;-54
2023/01/22 03:44:19;;;;;;;0.50;0.30;;;;;;;2.06;100.00;101230.53;5040653;28;20505;-54
2023/01/22 03:46:45;;;;;;;2.10;1.43;;;;;;;2.10;100.00;101233.22;5034009;28;20447;-54
2023/01/22 03:49:13;;;;;;;0.30;0.30;;;;;;;2.28;100.00;101238.84;5033963;28;20448;-54
2023/01/22 03:51:41;;;;;;;1.10;1.00;;;;;;;2.29;100.00;101233.63;5034095;28;20478;-54
2023/01/22 03:54:10;;;;;;;1.10;0.97;;;;;;;2.08;100.00;101239.31;5033831;28;20456;-54
2023/01/22 03:56:36;;;;;;;0.23;0.20;;;;;;;1.96;100.00;101241.69;5033844;28;20483;-54
2023/01/22 03:59:03;;;;;;;0.70;0.37;;;;;;;2.02;100.00;101239.16;5033908;28;20455;-54
2023/01/22 04:01:30;;;;;;;0.67;0.67;;;;;;;1.83;100.00;101238.75;5039357;28;20482;-54
2023/01/22 04:03:56;;;;;;;0.30;0.30;;;;;;;1.86;100.00;101237.06;5040238;28;20471;-54
2023/01/22 04:06:23;;;;;;;0.60;0.60;;;;;;;2.02;100.00;101235.66;5033839;28;20466;-54
2023/01/22 04:08:53;;;;;;;0.70;0.70;;;;;;;1.92;100.00;101239.84;5033572;28;20463;-54
2023/01/22 04:11:20;;;;;;;0.87;0.50;;;;;;;2.10;100.00;101244.59;5033547;28;20491;-54
2023/01/22 04:13:47;;;;;;;0.53;0.53;;;;;;;1.95;100.00;101241.66;5033812;28;20439;-53
2023/01/22 04:16:14;;;;;;;0.60;0.60;;;;;;;1.93;100.00;101249.47;5033687;28;20447;-54
2023/01/22 04:18:41;;;;;;;0.67;0.67;;;;;;;2.11;100.00;101242.84;5038741;28;20456;-54
2023/01/22 04:21:08;;;;;;;0.37;0.30;;;;;;;2.21;100.00;101239.56;5033074;28;20456;-54
2023/01/22 04:23:34;;;;;;;0.30;0.20;;;;;;;2.03;100.00;101240.94;5033055;28;20471;-54
2023/01/22 04:26:01;;;;;;;0.30;0.20;;;;;;;2.11;100.00;101243.75;5033634;28;20448;-54
2023/01/22 04:28:27;;;;;;;0.97;0.70;;;;;;;2.12;100.00;101240.25;5033333;28;20459;-54
2023/01/22 04:30:54;;;;;;;1.43;0.83;;;;;;;1.98;100.00;101244.31;5033155;28;20497;-54
2023/01/22 04:33:21;;;;;;;3.47;1.00;;;;;;;1.97;100.00;101235.56;5033143;28;20467;-54
2023/01/22 04:35:50;;;;;;;3.93;0.60;;;;;;;2.01;100.00;101242.66;5032989;28;20510;-54
2023/01/22 04:38:17;;;;;;;0.63;0.60;;;;;;;2.06;100.00;101235.78;5020244;28;20538;-54
2023/01/22 04:40:43;;;;;;;0.40;0.40;;;;;;;2.04;100.00;101234.84;5033123;28;20822;-54
2023/01/22 04:43:10;;;;;;;0.60;0.60;;;;;;;2.01;100.00;101234.78;5032954;28;20873;-54
2023/01/22 04:45:36;;;;;;;0.60;0.60;;;;;;;1.90;100.00;101232.78;5033118;28;20456;-54
2023/01/22 04:48:03;;;;;;;0.63;0.63;;;;;;;1.99;100.00;101233.00;5033380;28;20539;-54
2023/01/22 04:50:32;;;;;;;0.77;0.77;;;;;;;2.02;100.00;101227.81;5033596;28;20509;-54
2023/01/22 04:52:59;;;;;;;0.30;0.20;;;;;;;1.89;100.00;101224.03;5023337;28;20479;-54
2023/01/22 04:55:27;;;;;;;0.30;0.20;;;;;;;1.86;100.00;101231.84;5033782;28;20804;-54
2023/01/22 04:57:55;;;;;;;2.00;0.50;;;;;;;1.92;100.00;101228.44;5033757;28;20531;-53
2023/01/22 05:00:22;;;;;;;0.30;0.30;;;;;;;1.99;100.00;101236.50;5016262;28;20521;-53
2023/01/22 05:02:49;;;;;;;1.50;0.73;;;;;;;1.87;100.00;101230.97;5033151;28;20479;-54
2023/01/22 05:05:16;;;;;;;0.70;0.50;;;;;;;1.80;100.00;101236.97;5032552;28;20447;-54
2023/01/22 05:07:42;;;;;;;0.97;0.97;;;;;;;1.73;100.00;101238.53;5037623;28;20461;-54
2023/01/22 05:10:09;;;;;;;1.00;1.00;;;;;;;1.91;100.00;101238.06;5036209;28;20530;-56
2023/01/22 05:12:35;;;;;;;0.60;0.60;;;;;;;1.83;100.00;101242.25;5042182;28;20547;-54
2023/01/22 05:15:02;;;;;;;0.53;0.53;;;;;;;1.94;100.00;101242.50;5032184;28;20456;-54
2023/01/22 05:17:37;;;;;;;0.30;0.30;;;;;;;1.88;100.00;101243.22;5040750;28;20458;-54
2023/01/22 05:20:04;;;;;;;0.60;0.40;;;;;;;1.88;100.00;101252.84;5032613;28;20825;-54
2023/01/22 05:22:30;;;;;;;2.53;0.40;;;;;;;1.86;100.00;101252.81;5032569;28;20476;-54
2023/01/22 05:24:57;;;;;;;0.70;0.70;;;;;;;1.91;100.00;101252.91;5032424;28;20482;-54
2023/01/22 05:27:23;;;;;;;1.60;1.60;;;;;;;1.93;100.00;101248.59;5032318;28;20948;-54
2023/01/22 05:29:50;;;;;;;0.57;0.57;;;;;;;1.96;100.00;101246.03;5032243;28;20511;-54
2023/01/22 05:32:16;;;;;;;1.53;1.43;;;;;;;1.97;100.00;101250.44;5032222;28;21055;-54
2023/01/22 05:34:42;;;;;;;1.13;0.73;;;;;;;2.01;100.00;101253.13;5038724;28;20941;-54
2023/01/22 05:37:09;;;;;;;0.30;0.20;;;;;;;1.95;100.00;101258.25;5032343;28;20817;-54
2023/01/22 05:39:35;;;;;;;0.20;0.10;;;;;;;1.99;100.00;101252.22;5032166;28;20455;-54
2023/01/22 05:42:02;;;;;;;1.60;0.57;;;;;;;2.03;100.00;101259.28;5032213;28;20476;-54
2023/01/22 05:44:28;;;;;;;0.20;0.20;;;;;;;1.98;100.00;101252.19;5032199;28;20443;-54
2023/01/22 05:46:55;;;;;;;1.20;1.10;;;;;;;1.96;100.00;101260.03;5032207;28;20481;-54
2023/01/22 05:49:23;;;;;;;2.00;1.90;;;;;;;2.07;100.00;101265.50;5032796;28;20535;-55
2023/01/22 05:51:49;;;;;;;0.57;0.30;;;;;;;2.06;100.00;101263.75;5032630;28;20582;-54
2023/01/22 05:54:15;;;;;;;0.60;0.60;;;;;;;2.06;100.00;101255.88;5032199;28;20451;-54
2023/01/22 05:56:42;;;;;;;0.50;0.40;;;;;;;2.01;100.00;101263.63;5032290;28;20497;-54
2023/01/22 05:59:10;;;;;;;0.33;0.33;;;;;;;2.14;100.00;101250.78;5031845;28;20501;-54
2023/01/22 06:01:36;;;;;;;0.20;0.10;;;;;;;2.10;100.00;101256.81;5034731;28;21775;-55
2023/01/22 06:04:02;;;;;;;0.40;0.40;;;;;;;2.06;100.00;101250.63;5032580;28;20455;-55
2023/01/22 06:06:29;;;;;;;1.50;0.30;;;;;;;2.11;100.00;101255.97;5035842;28;20458;-54
2023/01/22 06:08:55;;;;;;;2.40;0.73;;;;;;;2.10;100.00;101255.09;5032073;28;20546;-55
2023/01/22 06:11:22;;;;;;;0.30;0.27;;;;;;;2.24;100.00;101264.13;5031832;28;20537;-55
2023/01/22 06:13:48;;;;;;;0.50;0.47;;;;;;;2.02;100.00;101264.50;5032091;28;20497;-54
2023/01/22 06:16:15;;;;;;;0.70;0.70;;;;;;;2.13;100.00;101264.75;5032478;28;20455;-54
2023/01/22 06:18:41;;;;;;;0.20;0.20;;;;;;;2.07;100.00;101262.88;5039014;28;20451;-55
2023/01/22 06:21:08;;;;;;;0.27;0.20;;;;;;;2.16;100.00;101267.44;5032625;28;20448;-55
2023/01/22 06:23:34;;;;;;;0.43;0.43;;;;;;;2.10;100.00;101267.31;5033598;28;20479;-54
2023/01/22 06:26:04;;;;;;;2.13;0.40;;;;;;;2.15;100.00;101263.91;5036562;28;20448;-55
2023/01/22 06:28:30;;;;;;;0.30;0.20;;;;;;;2.18;100.00;101265.72;5005836;28;20452;-55
2023/01/22 06:31:06;;;;;;;1.37;0.80;;;;;;;2.13;100.00;101264.75;5036155;28;20495;-55
2023/01/22 06:33:34;;;;;;;0.40;0.30;;;;;;;2.17;100.00;101269.19;5044860;28;20470;-55
2023/01/22 06:36:01;;;;;;;0.50;0.50;;;;;;;2.12;100.00;101269.09;5040143;28;20455;-55
2023/01/22 06:38:28;;;;;;;0.30;0.20;;;;;;;2.18;100.00;101263.09;5035613;28;20501;-54
2023/01/22 06:40:57;;;;;;;0.30;0.23;;;;;;;2.08;100.00;101260.28;5035317;28;20483;-54
2023/01/22 06:43:24;;;;;;;0.30;0.20;;;;;;;2.00;100.00;101268.84;5035625;28;21047;-55
2023/01/22 06:45:51;;;;;;;1.27;0.53;;;;;;;2.18;100.00;101273.59;5035275;28;21029;-56
2023/01/22 06:48:18;;;;;;;0.60;0.60;;;;;;;2.02;100.00;101269.75;5035391;28;20509;-55
2023/01/22 06:50:44;;;;;;;3.40;0.70;;;;;;;2.02;100.00;101285.47;5035173;28;20537;-55
2023/01/22 06:53:11;;;;;;;0.33;0.33;;;;;;;2.00;100.00;101277.59;5035276;28;20478;-55
2023/01/22 06:55:37;;;;;;;0.20;0.20;;;;;;;2.01;100.00;101275.84;5034977;28;20456;-56
2023/01/22 06:58:04;;;;;;;0.30;0.23;;;;;;;2.22;100.00;101288.56;5041204;28;20526;-54
2023/01/22 07:00:30;;;;;;;0.43;0.30;;;;;;;2.11;100.00;101293.56;5038557;28;20448;-55
2023/01/22 07:02:57;;;;;;;0.30;0.30;;;;;;;2.28;100.00;101292.19;5035720;28;20480;-53
2023/01/22 07:05:23;;;;;;;0.30;0.20;;;;;;;2.19;100.00;101288.47;5035600;28;20505;-53
2023/01/22 07:07:52;;;;;;;1.43;0.93;;;;;;;2.18;100.00;101291.94;5039311;28;20451;-53
2023/01/22 07:10:20;;;;;;;0.30;0.20;;;;;;;2.25;100.00;101301.72;5037901;28;20499;-53
2023/01/22 07:12:48;;;;;;;0.30;0.30;;;;;;;2.19;100.00;101301.56;5038479;28;20462;-53
2023/01/22 07:15:14;;;;;;;0.20;0.20;;;;;;;2.28;100.00;101314.91;5036748;28;20452;-53
2023/01/22 07:17:41;;;;;;;0.30;0.20;;;;;;;2.34;100.00;101309.81;5035099;28;20467;-53
2023/01/22 07:20:08;;;;;;;0.50;0.43;;;;;;;2.31;100.00;101309.72;5035153;28;20554;-53
2023/01/22 07:22:35;;;;;;;0.57;0.57;;;;;;;2.24;100.00;101315.69;5043405;28;20576;-53
2023/01/22 07:25:01;;;;;;;0.40;0.30;;;;;;;2.22;100.00;101320.91;5037697;28;20551;-54
2023/01/22 07:27:29;;;;;;;0.37;0.33;;;;;;;2.24;100.00;101323.56;5037378;28;20475;-53
2023/01/22 07:29:55;;;;;;;0.30;0.20;;;;;;;2.42;100.00;101320.44;5045269;28;20864;-53
2023/01/22 07:32:22;;;;;;;0.30;0.30;;;;;;;2.32;100.00;101332.47;5035724;28;21014;-54
2023/01/22 07:34:48;;;;;;;0.20;0.20;;;;;;;2.45;100.00;101329.25;5035651;28;20742;-53
2023/01/22 07:37:14;;;;;;;0.20;0.20;;;;;;;2.31;100.00;101335.94;5034062;28;20440;-54
2023/01/22 07:39:41;;;;;;;0.20;0.20;;;;;;;2.41;100.00;101335.28;5034188;28;20448;-53
2023/01/22 07:42:07;;;;;;;0.20;0.20;;;;;;;2.32;100.00;101330.72;5034763;28;20470;-53
2023/01/22 07:44:35;;;;;;;0.50;0.20;;;;;;;2.33;100.00;101336.84;5036476;28;20466;-53
2023/01/22 07:47:02;;;;;;;0.90;0.63;;;;;;;2.35;100.00;101337.81;5041598;28;20559;-53
2023/01/22 07:49:28;;;;;;;0.50;0.50;;;;;;;2.34;100.00;101342.16;5034382;28;20458;-53
2023/01/22 07:51:55;;;;;;;0.30;0.30;;;;;;;2.44;100.00;101343.22;5034071;28;20495;-53
2023/01/22 07:54:21;;;;;;;0.60;0.60;;;;;;;2.46;100.00;101343.25;5034229;28;20538;-53
2023/01/22 07:56:48;;;;;;;0.40;0.33;;;;;;;2.48;100.00;101350.34;5034569;28;20447;-53
2023/01/22 07:59:14;;;;;;;0.30;0.30;;;;;;;2.36;100.00;101350.06;5034258;28;20458;-54
2023/01/22 08:01:40;;;;;;;0.50;0.40;;;;;;;2.44;100.00;101353.72;5034161;28;20452;-53
2023/01/22 08:04:07;;;;;;;0.57;0.57;;;;;;;2.48;100.00;101358.22;5033570;28;20513;-54
2023/01/22 08:06:33;;;;;;;0.30;0.20;;;;;;;2.63;100.00;101361.16;5034342;28;20456;-53
2023/01/22 08:09:00;;;;;;;0.50;0.30;;;;;;;2.45;100.00;101349.34;5034204;28;20451;-53
2023/01/22 08:11:27;;;;;;;0.40;0.40;;;;;;;2.51;100.00;101363.50;5033676;28;20583;-53
2023/01/22 08:13:53;;;;;;;0.20;0.20;;;;;;;2.55;100.00;101359.22;5038824;28;20483;-53
2023/01/22 08:16:20;;;;;;;0.40;0.40;;;;;;;2.57;100.00;101363.63;5033810;28;20556;-55
2023/01/22 08:18:47;;;;;;;0.37;0.37;;;;;;;2.73;100.00;101369.19;5020724;28;20458;-54
2023/01/22 08:21:13;;;;;;;0.30;0.20;;;;;;;2.68;100.00;101370.00;5013292;28;20460;-54
2023/01/22 08:23:40;;;;;;;0.27;0.20;;;;;;;2.60;100.00;101368.97;5017124;28;20472;-53
2023/01/22 08:26:10;;;;;;;0.30;0.20;;;;;;;2.65;100.00;101364.69;5037545;28;20459;-54
2023/01/22 08:28:37;;;;;;;0.20;0.20;;;;;;;2.71;100.00;101366.53;5033698;28;20866;-54
2023/01/22 08:31:04;;;;;;;0.40;0.40;;;;;;;2.65;100.00;101371.69;5033355;28;20509;-54
2023/01/22 08:33:33;;;;;;;0.20;0.20;;;;;;;2.53;100.00;101374.91;5033534;28;20546;-54
2023/01/22 08:35:59;;;;;;;0.33;0.33;;;;;;;2.57;100.00;101371.50;5033875;28;20456;-54
2023/01/22 08:38:26;;;;;;;0.40;0.30;;;;;;;2.58;100.00;101385.50;5033603;28;20457;-54
2023/01/22 08:40:52;;;;;;;0.83;0.33;;;;;;;2.55;100.00;101372.31;5033836;28;20454;-54
2023/01/22 08:43:19;;;;;;;0.30;0.20;;;;;;;2.58;100.00;101378.50;5033569;28;20486;-54
2023/01/22 08:45:48;;;;;;;1.03;0.93;;;;;;;2.55;100.00;101381.09;5033237;28;20454;-54
2023/01/22 08:48:16;;;;;;;0.60;0.40;;;;;;;2.54;100.00;101379.31;5033489;28;20448;-54
2023/01/22 08:50:42;;;;;;;0.63;0.63;;;;;;;2.55;100.00;101390.69;5033396;28;20487;-54
2023/01/22 08:53:09;;;;;;;0.20;0.10;;;;;;;2.62;100.00;101393.50;5033740;28;20474;-53
2023/01/22 08:55:35;;;;;;;0.37;0.23;;;;;;;2.62;100.00;101395.25;5037438;28;20447;-54
2023/01/22 08:58:02;;;;;;;0.43;0.43;;;;;;;2.69;100.00;101386.63;5034361;28;20452;-54
2023/01/22 09:00:29;;;;;;;0.63;0.63;;;;;;;2.76;100.00;101393.78;5016135;28;20822;-54
2023/01/22 09:02:57;;;;;;;0.50;0.50;;;;;;;2.70;100.00;101390.13;5033403;28;20499;-54
2023/01/22 09:05:23;;;;;;;0.40;0.40;;;;;;;2.62;100.00;101396.13;5034562;28;20853;-54
2023/01/22 09:07:50;;;;;;;0.83;0.50;;;;;;;2.68;100.00;101397.97;5033105;28;20531;-53
2023/01/22 09:10:17;;;;;;;1.10;1.10;;;;;;;2.60;100.00;101392.59;5032556;28;20452;-54
2023/01/22 09:12:46;;;;;;;0.80;0.80;;;;;;;2.73;100.00;101398.94;5032682;28;20455;-54
2023/01/22 09:15:14;;;;;;;0.20;0.20;;;;;;;2.80;100.00;101398.25;5033404;28;20443;-53
2023/01/22 09:17:40;;;;;;;0.40;0.40;;;;;;;2.68;100.00;101404.13;5033068;28;20995;-54
2023/01/22 09:20:08;;;;;;;0.27;0.20;;;;;;;2.79;100.00;101398.22;5033290;28;20451;-53
2023/01/22 09:22:34;;;;;;;0.20;0.10;;;;;;;2.63;100.00;101403.13;5032253;28;20467;-53
2023/01/22 09:25:01;;;;;;;0.33;0.27;;;;;;;2.77;100.00;101403.44;5034438;28;20451;-53
2023/01/22 09:27:27;;;;;;;0.40;0.40;;;;;;;2.79;100.00;101408.72;5033403;28;20863;-53
2023/01/22 09:29:53;;;;;;;0.30;0.30;;;;;;;2.86;100.00;101408.84;5033137;28;20452;-54
2023/01/22 09:32:20;;;;;;;1.30;0.50;;;;;;;3.00;100.00;101401.25;5032712;28;20901;-53
2023/01/22 09:34:46;;;;;;;0.73;0.73;;;;;;;3.07;100.00;101404.91;5037886;28;20455;-54
2023/01/22 09:37:13;;;;;;;0.73;0.73;;;;;;;3.09;98.86;101404.06;5041927;28;21181;-53
2023/01/22 09:39:40;;;;;;;0.50;0.30;;;;;;;3.05;99.13;101402.25;5042519;28;20451;-54
2023/01/22 09:42:14;;;;;;;0.30;0.20;;;;;;;3.14;99.26;101404.16;5035841;28;20490;-53
2023/01/22 09:44:45;;;;;;;0.40;0.40;;;;;;;3.23;99.22;101402.59;5032707;28;20944;-54
2023/01/22 09:47:20;;;;;;;0.30;0.20;;;;;;;3.26;99.40;101407.91;5033010;28;20448;-54
2023/01/22 09:49:53;;;;;;;0.50;0.50;;;;;;;3.16;99.20;101418.22;5033205;28;20443;-53
2023/01/22 09:52:23;;;;;;;0.40;0.40;;;;;;;3.38;98.70;101415.16;5032851;28;21008;-53
2023/01/22 09:54:49;;;;;;;0.30;0.20;;;;;;;3.17;98.76;101418.25;5033632;28;20444;-53
2023/01/22 09:57:16;;;;;;;0.40;0.40;;;;;;;3.09;99.37;101414.59;5032992;28;20925;-53
2023/01/22 09:59:57;;;;;;;0.60;0.60;;;;;;;3.25;98.81;101418.41;5036017;28;20454;-53
2023/01/22 10:02:45;;;;;;;1.43;0.37;;;;;;;3.43;98.07;101412.63;5037575;28;20483;-53
2023/01/22 10:05:32;;;;;;;0.37;0.37;;;;;;;3.24;98.77;101422.75;5036850;28;20492;-53
2023/01/22 10:08:28;;;;;;;0.30;0.30;;;;;;;3.46;98.51;101418.81;5045776;28;20450;-54
2023/01/22 10:10:54;;;;;;;0.73;0.73;;;;;;;3.48;98.13;101419.72;5034483;28;20837;-53
2023/01/22 10:13:28;;;;;;;0.20;0.10;;;;;;;3.45;97.97;101421.41;5038693;28;20529;-53
2023/01/22 10:15:55;;;;;;;0.60;0.60;;;;;;;3.57;97.63;101424.28;5046090;28;20996;-53
2023/01/22 10:18:52;;;;;;;0.47;0.47;;;;;;;3.36;98.34;101426.50;5038995;28;20454;-53
2023/01/22 10:21:30;;;;;;;0.40;0.20;;;;;;;3.60;98.23;101432.22;5034301;28;20453;-53
2023/01/22 10:23:58;;;;;;;0.20;0.20;;;;;;;3.55;98.15;101428.59;5032973;28;20454;-53
2023/01/22 10:26:41;;;;;;;0.20;0.20;;;;;;;3.41;98.05;101432.69;5039884;28;20456;-53
2023/01/22 10:29:13;;;;;;;0.37;0.37;;;;;;;3.31;98.95;101425.53;5038031;28;20944;-53
2023/01/22 10:31:50;;;;;;;0.20;0.20;;;;;;;3.20;99.54;101431.44;5047076;28;21007;-53
2023/01/22 10:34:32;;;;;;;0.20;0.10;;;;;;;3.22;99.01;101429.72;5048710;28;20458;-53
2023/01/22 10:37:17;;;;;;;0.53;0.50;;;;;;;3.38;99.31;101430.91;5036669;28;20462;-53
2023/01/22 10:39:46;;;;;;;0.30;0.20;;;;;;;3.34;98.75;101429.09;5043904;28;20462;-53
2023/01/22 10:42:17;;;;;;;0.30;0.30;;;;;;;3.31;97.73;101421.16;5039623;28;20471;-53
2023/01/22 10:44:44;;;;;;;1.27;1.17;;;;;;;3.38;99.08;101419.50;5023698;28;20451;-54
2023/01/22 10:47:19;;;;;;;0.87;0.87;;;;;;;3.33;99.57;101416.81;5036287;28;20474;-53
2023/01/22 10:49:47;;;;;;;0.40;0.30;;;;;;;3.53;98.47;101427.69;5036120;28;20469;-53
2023/01/22 10:52:23;;;;;;;0.93;0.90;;;;;;;3.50;98.56;101417.13;5035416;28;20952;-54
2023/01/22 10:54:54;;;;;;;2.00;0.60;;;;;;;3.27;99.37;101422.81;5047698;28;20450;-53
2023/01/22 10:57:24;;;;;;;1.10;1.00;;;;;;;3.46;98.22;101413.56;5037934;28;20944;-53
2023/01/22 11:00:04;;;;;;;0.50;0.50;;;;;;;3.53;98.13;101425.94;5035662;28;20812;-53
2023/01/22 11:02:34;;;;;;;2.20;0.30;;;;;;;3.34;98.74;101426.47;5035092;28;20493;-53
2023/01/22 11:05:19;;;;;;;0.40;0.30;;;;;;;3.53;98.84;101422.41;5040409;28;20459;-53
2023/01/22 11:07:57;;;;;;;0.43;0.27;;;;;;;3.44;98.75;101419.66;5042283;28;20450;-53
2023/01/22 11:10:46;;;;;;;2.10;0.47;;;;;;;3.52;98.83;101425.91;5037632;28;20976;-54
2023/01/22 11:13:24;;;;;;;3.67;0.63;;;;;;;3.68;98.37;101425.31;5043535;28;20491;-51
2023/01/22 11:15:57;;;;;;;1.80;0.60;;;;;;;3.72;97.33;101429.81;5037910;28;20534;-52
2023/01/22 11:18:43;;;;;;;0.67;0.43;;;;;;;3.47;98.17;101435.47;5049322;28;20457;-52
2023/01/22 11:21:24;;;;;;;0.30;0.30;;;;;;;3.54;98.03;101429.44;5039854;28;20546;-52
2023/01/22 11:23:56;;;;;;;0.30;0.30;;;;;;;3.60;97.73;101434.84;5023967;28;20941;-51
2023/01/22 11:26:42;;;;;;;0.30;0.30;;;;;;;3.65;97.49;101424.38;5017898;28;20440;-51
2023/01/22 11:29:27;;;;;;;0.20;0.20;;;;;;;3.68;97.47;101433.22;5037686;28;20451;-53
2023/01/22 11:32:20;;;;;;;0.30;0.20;;;;;;;3.72;97.65;101434.19;5031279;28;20496;-53
2023/01/22 11:35:02;;;;;;;0.30;0.20;;;;;;;3.73;97.08;101434.19;5019333;28;20574;-53
2023/01/22 11:37:46;;;;;;;0.30;0.20;;;;;;;3.77;96.88;101428.13;5044921;28;20964;-52
2023/01/22 11:40:32;;;;;;;0.30;0.30;;;;;;;3.62;97.44;101419.97;5029874;28;20450;-51
2023/01/22 11:43:32;;;;;;;0.30;0.20;;;;;;;3.53;98.21;101428.56;5044441;28;21082;-52